sensor_id;sensor_type;location;lat;lon;timestamp;pressure;altitude;pressure_sealevel;temperature;humidity
64080;BME280;51042;49.696;10.808;2023-03-21T00:00:37;98674.56;;;7.55;99.92
64080;BME280;51042;49.696;10.808;2023-03-21T00:03:02;98678.06;;;7.52;100.00
64080;BME280;51042;49.696;10.808;2023-03-21T00:05:28;98680.09;;;7.48;100.00
64080;BME280;51042;49.696;10.808;2023-03-21T00:07:53;98679.75;;;7.43;100.00
64080;BME280;51042;49.696;10.808;2023-03-21T00:10:18;98670.47;;;7.36;100.00
64080;BME280;51042;49.696;10.808;2023-03-21T00:12:43;98675.59;;;7.31;100.00
64080;BME280;51042;49.696;10.808;2023-03-21T00:15:09;98674.09;;;7.26;100.00
64080;BME280;51042;49.696;10.808;2023-03-21T00:17:35;98673.38;;;7.19;100.00
64080;BME280;51042;49.696;10.808;2023-03-21T00:20:04;98676.56;;;7.10;100.00
64080;BME280;51042;49.696;10.808;2023-03-21T00:22:29;98672.78;;;7.01;100.00
64080;BME280;51042;49.696;10.808;2023-03-21T00:24:54;98667.78;;;6.92;100.00
64080;BME280;51042;49.696;10.808;2023-03-21T00:27:20;98668.28;;;6.80;100.00
64080;BME280;51042;49.696;10.808;2023-03-21T00:29:45;98664.47;;;6.70;100.00
64080;BME280;51042;49.696;10.808;2023-03-21T00:32:12;98672.34;;;6.61;100.00
64080;BME280;51042;49.696;10.808;2023-03-21T00:34:38;98667.69;;;6.58;100.00
64080;BME280;51042;49.696;10.808;2023-03-21T00:37:03;98665.00;;;6.54;100.00
64080;BME280;51042;49.696;10.808;2023-03-21T00:39:31;98660.72;;;6.50;100.00
64080;BME280;51042;49.696;10.808;2023-03-21T00:41:56;98657.25;;;6.46;100.00
64080;BME280;51042;49.696;10.808;2023-03-21T00:44:21;98658.47;;;6.41;100.00
64080;BME280;51042;49.696;10.808;2023-03-21T00:46:48;98656.53;;;6.38;100.00
64080;BME280;51042;49.696;10.808;2023-03-21T00:49:13;98641.75;;;6.36;100.00
64080;BME280;51042;49.696;10.808;2023-03-21T00:51:38;98632.44;;;6.33;100.00
64080;BME280;51042;49.696;10.808;2023-03-21T00:54:03;98636.31;;;6.36;100.00
64080;BME280;51042;49.696;10.808;2023-03-21T00:56:29;98633.22;;;6.34;100.00
64080;BME280;51042;49.696;10.808;2023-03-21T00:58:55;98640.25;;;6.31;100.00
64080;BME280;51042;49.696;10.808;2023-03-21T01:01:20;98632.84;;;6.28;100.00
64080;BME280;51042;49.696;10.808;2023-03-21T01:03:45;98620.41;;;6.27;100.00
64080;BME280;51042;49.696;10.808;2023-03-21T01:06:15;98620.03;;;6.25;100.00
64080;BME280;51042;49.696;10.808;2023-03-21T01:08:43;98630.97;;;6.22;100.00
64080;BME280;51042;49.696;10.808;2023-03-21T01:11:10;98620.88;;;6.19;100.00
64080;BME280;51042;49.696;10.808;2023-03-21T01:13:36;98622.44;;;6.16;100.00
64080;BME280;51042;49.696;10.808;2023-03-21T01:16:01;98626.31;;;6.15;100.00
64080;BME280;51042;49.696;10.808;2023-03-21T01:18:29;98622.47;;;6.12;100.00
64080;BME280;51042;49.696;10.808;2023-03-21T01:20:55;98618.59;;;6.10;100.00
64080;BME280;51042;49.696;10.808;2023-03-21T01:23:21;98618.25;;;6.01;100.00
64080;BME280;51042;49.696;10.808;2023-03-21T01:25:47;98613.25;;;5.92;100.00
64080;BME280;51042;49.696;10.808;2023-03-21T01:28:13;98620.25;;;5.86;100.00
64080;BME280;51042;49.696;10.808;2023-03-21T01:30:38;98620.66;;;5.85;100.00
64080;BME280;51042;49.696;10.808;2023-03-21T01:33:03;98623.00;;;5.83;100.00
64080;BME280;51042;49.696;10.808;2023-03-21T01:35:28;98626.91;;;5.82;100.00
64080;BME280;51042;49.696;10.808;2023-03-21T01:37:53;98620.66;;;5.85;100.00
64080;BME280;51042;49.696;10.808;2023-03-21T01:40:20;98620.66;;;5.85;100.00
64080;BME280;51042;49.696;10.808;2023-03-21T01:42:45;98617.53;;;5.86;100.00
64080;BME280;51042;49.696;10.808;2023-03-21T01:47:54;98618.72;;;5.82;100.00
64080;BME280;51042;49.696;10.808;2023-03-21T01:50:20;98615.63;;;5.80;100.00
64080;BME280;51042;49.696;10.808;2023-03-21T01:52:46;98610.97;;;5.77;100.00
64080;BME280;51042;49.696;10.808;2023-03-21T01:55:15;98610.63;;;5.71;100.00
64080;BME280;51042;49.696;10.808;2023-03-21T01:57:46;98609.47;;;5.68;100.00
64080;BME280;51042;49.696;10.808;2023-03-21T02:00:13;98608.72;;;5.64;100.00
64080;BME280;51042;49.696;10.808;2023-03-21T02:02:41;98603.69;;;5.59;100.00
64080;BME280;51042;49.696;10.808;2023-03-21T03:24:33;98581.56;;;6.20;100.00
64080;BME280;51042;49.696;10.808;2023-03-21T03:27:06;98586.19;;;6.23;100.00
64080;BME280;51042;49.696;10.808;2023-03-21T03:29:33;98584.63;;;6.22;100.00
64080;BME280;51042;49.696;10.808;2023-03-21T03:32:20;98587.75;;;6.20;100.00
64080;BME280;51042;49.696;10.808;2023-03-21T03:34:45;98584.28;;;6.20;100.00
64080;BME280;51042;49.696;10.808;2023-03-21T03:37:15;98582.72;;;6.19;100.00
64080;BME280;51042;49.696;10.808;2023-03-21T03:39:42;98584.28;;;6.16;100.00
64080;BME280;51042;49.696;10.808;2023-03-21T03:42:14;98581.19;;;6.14;100.00
64080;BME280;51042;49.696;10.808;2023-03-21T03:44:41;98576.94;;;6.13;100.00
64080;BME280;51042;49.696;10.808;2023-03-21T03:47:08;98579.66;;;6.09;100.00
64080;BME280;51042;49.696;10.808;2023-03-21T03:49:38;98573.44;;;6.09;100.00
64080;BME280;51042;49.696;10.808;2023-03-21T03:52:11;98570.72;;;6.09;100.00
64080;BME280;51042;49.696;10.808;2023-03-21T03:54:44;98571.50;;;6.09;100.00
64080;BME280;51042;49.696;10.808;2023-03-21T03:57:11;98568.81;;;6.06;100.00
64080;BME280;51042;49.696;10.808;2023-03-21T03:59:38;98574.69;;;6.01;100.00
64080;BME280;51042;49.696;10.808;2023-03-21T04:02:04;98566.53;;;5.97;100.00
64080;BME280;51042;49.696;10.808;2023-03-21T04:04:29;98575.13;;;5.96;100.00
64080;BME280;51042;49.696;10.808;2023-03-21T04:06:55;98570.44;;;5.93;100.00
64080;BME280;51042;49.696;10.808;2023-03-21T04:09:21;98568.91;;;5.92;100.00
64080;BME280;51042;49.696;10.808;2023-03-21T04:11:46;98559.16;;;5.91;100.00
64080;BME280;51042;49.696;10.808;2023-03-21T04:14:12;98561.13;;;5.90;100.00
64080;BME280;51042;49.696;10.808;2023-03-21T04:16:37;98555.31;;;5.88;100.00
64080;BME280;51042;49.696;10.808;2023-03-21T04:19:02;98558.41;;;5.87;100.00
64080;BME280;51042;49.696;10.808;2023-03-21T04:21:28;98558.44;;;5.83;100.00
64080;BME280;51042;49.696;10.808;2023-03-21T04:23:53;98569.72;;;5.82;100.00
64080;BME280;51042;49.696;10.808;2023-03-21T04:26:22;98562.34;;;5.79;100.00
64080;BME280;51042;49.696;10.808;2023-03-21T04:28:48;98562.38;;;5.75;100.00
64080;BME280;51042;49.696;10.808;2023-03-21T04:31:14;98558.91;;;5.71;100.00
64080;BME280;51042;49.696;10.808;2023-03-21T04:33:39;98562.78;;;5.70;100.00
64080;BME280;51042;49.696;10.808;2023-03-21T04:36:05;98570.97;;;5.66;100.00
64080;BME280;51042;49.696;10.808;2023-03-21T04:38:30;98568.28;;;5.63;100.00
64080;BME280;51042;49.696;10.808;2023-03-21T04:40:57;98564.03;;;5.58;100.00
64080;BME280;51042;49.696;10.808;2023-03-21T04:43:23;98569.88;;;5.53;100.00
64080;BME280;51042;49.696;10.808;2023-03-21T04:45:48;98564.09;;;5.48;100.00
64080;BME280;51042;49.696;10.808;2023-03-21T04:48:14;98555.56;;;5.42;100.00
64080;BME280;51042;49.696;10.808;2023-03-21T04:50:41;98561.81;;;5.36;100.00
64080;BME280;51042;49.696;10.808;2023-03-21T04:53:07;98552.50;;;5.29;100.00
64080;BME280;51042;49.696;10.808;2023-03-21T04:55:32;98554.88;;;5.24;100.00
64080;BME280;51042;49.696;10.808;2023-03-21T04:57:57;98555.25;;;5.19;100.00
64080;BME280;51042;49.696;10.808;2023-03-21T05:00:22;98554.13;;;5.13;100.00
64080;BME280;51042;49.696;10.808;2023-03-21T05:02:49;98552.97;;;5.10;100.00
64080;BME280;51042;49.696;10.808;2023-03-21T05:05:14;98553.75;;;5.11;100.00
64080;BME280;51042;49.696;10.808;2023-03-21T05:07:40;98558.38;;;5.14;100.00
64080;BME280;51042;49.696;10.808;2023-03-21T05:10:06;98556.44;;;5.18;100.00
64080;BME280;51042;49.696;10.808;2023-03-21T05:12:32;98557.97;;;5.19;100.00
64080;BME280;51042;49.696;10.808;2023-03-21T05:14:57;98560.31;;;5.20;100.00
64080;BME280;51042;49.696;10.808;2023-03-21T05:17:22;98570.03;;;5.21;100.00
64080;BME280;51042;49.696;10.808;2023-03-21T05:19:49;98564.97;;;5.23;100.00
64080;BME280;51042;49.696;10.808;2023-03-21T05:22:14;98559.13;;;5.25;100.00
64080;BME280;51042;49.696;10.808;2023-03-21T05:24:43;98557.94;;;5.26;100.00
64080;BME280;51042;49.696;10.808;2023-03-21T05:27:16;98563.03;;;5.24;100.00
64080;BME280;51042;49.696;10.808;2023-03-21T05:29:58;98564.19;;;5.23;100.00
64080;BME280;51042;49.696;10.808;2023-03-21T05:32:23;98569.63;;;5.23;100.00
64080;BME280;51042;49.696;10.808;2023-03-21T05:34:48;98571.19;;;5.24;100.00
64080;BME280;51042;49.696;10.808;2023-03-21T05:37:13;98573.50;;;5.29;100.00
64080;BME280;51042;49.696;10.808;2023-03-21T05:39:39;98567.25;;;5.36;100.00
64080;BME280;51042;49.696;10.808;2023-03-21T05:42:04;98570.69;;;5.43;100.00
64080;BME280;51042;49.696;10.808;2023-03-21T05:44:29;98576.84;;;5.54;100.00
64080;BME280;51042;49.696;10.808;2023-03-21T05:46:55;98579.13;;;5.66;100.00
64080;BME280;51042;49.696;10.808;2023-03-21T05:49:20;98573.66;;;5.77;100.00
64080;BME280;51042;49.696;10.808;2023-03-21T05:51:46;98575.53;;;5.87;100.00
64080;BME280;51042;49.696;10.808;2023-03-21T05:54:11;98578.59;;;5.96;100.00
64080;BME280;51042;49.696;10.808;2023-03-21T05:56:40;98585.94;;;6.06;100.00
64080;BME280;51042;49.696;10.808;2023-03-21T05:59:05;98579.63;;;6.17;100.00
64080;BME280;51042;49.696;10.808;2023-03-21T06:01:31;98583.06;;;6.24;100.00
64080;BME280;51042;49.696;10.808;2023-03-21T06:03:56;98593.91;;;6.31;100.00
64080;BME280;51042;49.696;10.808;2023-03-21T06:06:21;98579.84;;;6.36;100.00
64080;BME280;51042;49.696;10.808;2023-03-21T06:08:46;98582.88;;;6.49;100.00
64080;BME280;51042;49.696;10.808;2023-03-21T06:11:21;98579.25;;;6.59;100.00
64080;BME280;51042;49.696;10.808;2023-03-21T06:13:47;98583.84;;;6.69;100.00
64080;BME280;51042;49.696;10.808;2023-03-21T06:16:12;98585.78;;;6.69;100.00
64080;BME280;51042;49.696;10.808;2023-03-21T06:18:37;98586.53;;;6.73;100.00
64080;BME280;51042;49.696;10.808;2023-03-21T06:21:02;98573.31;;;6.68;100.00
64080;BME280;51042;49.696;10.808;2023-03-21T06:23:28;98584.22;;;6.71;100.00
64080;BME280;51042;49.696;10.808;2023-03-21T06:25:53;98581.50;;;6.68;100.00
64080;BME280;51042;49.696;10.808;2023-03-21T06:28:18;98584.22;;;6.71;100.00
64080;BME280;51042;49.696;10.808;2023-03-21T06:30:43;98584.94;;;6.79;100.00
64080;BME280;51042;49.696;10.808;2023-03-21T06:33:08;98585.28;;;6.81;100.00
64080;BME280;51042;49.696;10.808;2023-03-21T06:35:34;98583.69;;;6.83;100.00
64080;BME280;51042;49.696;10.808;2023-03-21T06:37:59;98582.53;;;6.84;100.00
64080;BME280;51042;49.696;10.808;2023-03-21T06:40:24;98582.00;;;6.96;100.00
64080;BME280;51042;49.696;10.808;2023-03-21T06:42:49;98579.81;;;6.84;100.00
64080;BME280;51042;49.696;10.808;2023-03-21T06:45:15;98572.22;;;6.99;100.00
64080;BME280;51042;49.696;10.808;2023-03-21T06:47:40;98578.00;;;7.08;100.00
64080;BME280;51042;49.696;10.808;2023-03-21T06:50:05;98576.25;;;7.21;100.00
64080;BME280;51042;49.696;10.808;2023-03-21T06:52:31;98572.66;;;7.31;100.00
64080;BME280;51042;49.696;10.808;2023-03-21T06:54:56;98575.56;;;7.48;100.00
64080;BME280;51042;49.696;10.808;2023-03-21T06:57:21;98582.72;;;7.65;100.00
64080;BME280;51042;49.696;10.808;2023-03-21T06:59:46;98575.53;;;7.78;99.20
64080;BME280;51042;49.696;10.808;2023-03-21T07:02:12;98575.13;;;7.79;96.36
64080;BME280;51042;49.696;10.808;2023-03-21T07:04:37;98578.72;;;8.00;96.77
64080;BME280;51042;49.696;10.808;2023-03-21T07:07:02;98581.97;;;8.18;95.55
64080;BME280;51042;49.696;10.808;2023-03-21T07:09:27;98574.69;;;8.35;93.93
64080;BME280;51042;49.696;10.808;2023-03-21T07:11:52;98571.84;;;8.42;92.43
64080;BME280;51042;49.696;10.808;2023-03-21T07:14:18;98578.19;;;8.35;90.35
64080;BME280;51042;49.696;10.808;2023-03-21T07:16:43;98580.06;;;8.42;91.45
64080;BME280;51042;49.696;10.808;2023-03-21T07:19:08;98582.91;;;8.58;91.30
64080;BME280;51042;49.696;10.808;2023-03-21T07:21:34;98583.72;;;8.78;89.09
64080;BME280;51042;49.696;10.808;2023-03-21T07:23:59;98583.47;;;8.92;88.58
64080;BME280;51042;49.696;10.808;2023-03-21T07:26:25;98595.38;;;9.06;88.17
64080;BME280;51042;49.696;10.808;2023-03-21T07:28:50;98582.78;;;9.28;87.70
64080;BME280;51042;49.696;10.808;2023-03-21T07:31:15;98588.25;;;9.48;86.87
64080;BME280;51042;49.696;10.808;2023-03-21T07:33:41;98587.72;;;9.72;86.21
64080;BME280;51042;49.696;10.808;2023-03-21T07:36:08;98587.34;;;9.90;85.06
64080;BME280;51042;49.696;10.808;2023-03-21T07:38:34;98593.53;;;9.94;84.68
64080;BME280;51042;49.696;10.808;2023-03-21T07:40:59;98589.88;;;9.65;84.60
64080;BME280;51042;49.696;10.808;2023-03-21T07:43:25;98587.00;;;9.88;85.89
64080;BME280;51042;49.696;10.808;2023-03-21T07:45:50;98591.56;;;9.95;84.44
64080;BME280;51042;49.696;10.808;2023-03-21T07:48:15;98595.50;;;9.94;84.57
64080;BME280;51042;49.696;10.808;2023-03-21T07:50:41;98586.75;;;10.18;83.95
64080;BME280;51042;49.696;10.808;2023-03-21T07:53:07;98592.91;;;10.39;83.33
64080;BME280;51042;49.696;10.808;2023-03-21T07:55:32;98591.03;;;10.52;81.80
64080;BME280;51042;49.696;10.808;2023-03-21T07:57:59;98590.81;;;10.75;80.38
64080;BME280;51042;49.696;10.808;2023-03-21T08:00:25;98589.97;;;10.78;78.37
64080;BME280;51042;49.696;10.808;2023-03-21T08:02:51;98594.00;;;10.74;77.78
64080;BME280;51042;49.696;10.808;2023-03-21T08:05:21;98599.66;;;10.83;77.75
64080;BME280;51042;49.696;10.808;2023-03-21T08:07:47;98602.00;;;10.97;77.29
64080;BME280;51042;49.696;10.808;2023-03-21T08:10:12;98607.84;;;10.99;77.95
64080;BME280;51042;49.696;10.808;2023-03-21T08:12:37;98595.78;;;11.25;75.14
64080;BME280;51042;49.696;10.808;2023-03-21T08:15:03;98603.03;;;11.61;73.86
64080;BME280;51042;49.696;10.808;2023-03-21T08:17:28;98601.81;;;11.62;70.84
64080;BME280;51042;49.696;10.808;2023-03-21T08:19:53;98593.81;;;11.80;72.07
64080;BME280;51042;49.696;10.808;2023-03-21T08:22:19;98592.09;;;12.11;71.57
64080;BME280;51042;49.696;10.808;2023-03-21T08:24:44;98589.75;;;12.22;69.65
64080;BME280;51042;49.696;10.808;2023-03-21T08:27:09;98590.00;;;12.03;69.63
64080;BME280;51042;49.696;10.808;2023-03-21T08:29:34;98592.91;;;12.59;69.06
64080;BME280;51042;49.696;10.808;2023-03-21T08:32:04;98590.47;;;12.74;66.38
64080;BME280;51042;49.696;10.808;2023-03-21T08:34:29;98592.19;;;13.27;65.02
64080;BME280;51042;49.696;10.808;2023-03-21T08:36:55;98584.34;;;13.69;61.27
64080;BME280;51042;49.696;10.808;2023-03-21T08:39:20;98580.75;;;13.60;62.65
64080;BME280;51042;49.696;10.808;2023-03-21T08:41:46;98584.22;;;13.29;61.96
64080;BME280;51042;49.696;10.808;2023-03-21T08:44:11;98582.06;;;13.12;63.58
64080;BME280;51042;49.696;10.808;2023-03-21T08:46:36;98578.06;;;13.25;62.16
64080;BME280;51042;49.696;10.808;2023-03-21T08:49:02;98568.81;;;13.41;61.40
64080;BME280;51042;49.696;10.808;2023-03-21T08:51:27;98566.97;;;13.38;59.93
64080;BME280;51042;49.696;10.808;2023-03-21T08:53:52;98565.03;;;13.69;59.89
64080;BME280;51042;49.696;10.808;2023-03-21T08:56:17;98565.69;;;13.52;58.81
64080;BME280;51042;49.696;10.808;2023-03-21T08:58:42;98557.44;;;13.52;60.62
64080;BME280;51042;49.696;10.808;2023-03-21T09:01:08;98558.69;;;13.90;59.56
64080;BME280;51042;49.696;10.808;2023-03-21T09:03:35;98556.50;;;14.16;58.06
64080;BME280;51042;49.696;10.808;2023-03-21T09:06:01;98555.25;;;14.57;58.21
64080;BME280;51042;49.696;10.808;2023-03-21T09:08:26;98555.41;;;14.72;57.06
64080;BME280;51042;49.696;10.808;2023-03-21T09:10:52;98551.88;;;14.62;57.24
64080;BME280;51042;49.696;10.808;2023-03-21T09:13:17;98549.22;;;14.41;55.85
64080;BME280;51042;49.696;10.808;2023-03-21T09:15:42;98559.50;;;14.49;55.08
64080;BME280;51042;49.696;10.808;2023-03-21T09:18:07;98559.38;;;14.13;56.40
64080;BME280;51042;49.696;10.808;2023-03-21T09:20:44;98559.31;;;14.35;56.91
64080;BME280;51042;49.696;10.808;2023-03-21T09:23:10;98560.72;;;14.48;55.97
64080;BME280;51042;49.696;10.808;2023-03-21T09:25:37;98561.75;;;14.23;56.94
64080;BME280;51042;49.696;10.808;2023-03-21T09:28:02;98555.72;;;14.16;56.87
64080;BME280;51042;49.696;10.808;2023-03-21T09:30:29;98556.94;;;14.15;56.20
64080;BME280;51042;49.696;10.808;2023-03-21T09:32:55;98560.91;;;14.05;57.25
64080;BME280;51042;49.696;10.808;2023-03-21T09:35:20;98557.78;;;14.34;56.19
64080;BME280;51042;49.696;10.808;2023-03-21T09:37:47;98566.88;;;14.43;55.78
64080;BME280;51042;49.696;10.808;2023-03-21T09:45:35;98552.38;;;14.21;55.26
64080;BME280;51042;49.696;10.808;2023-03-21T09:48:04;98556.19;;;14.14;56.43
64080;BME280;51042;49.696;10.808;2023-03-21T09:50:34;98548.09;;;14.29;55.29
64080;BME280;51042;49.696;10.808;2023-03-21T09:53:13;98544.63;;;13.67;55.68
64080;BME280;51042;49.696;10.808;2023-03-21T09:55:41;98546.34;;;14.04;56.42
64080;BME280;51042;49.696;10.808;2023-03-21T09:58:14;98543.44;;;14.57;55.91
64080;BME280;51042;49.696;10.808;2023-03-21T10:00:44;98540.84;;;14.81;53.41
64080;BME280;51042;49.696;10.808;2023-03-21T10:05:41;98532.56;;;14.72;54.23
64080;BME280;51042;49.696;10.808;2023-03-21T10:08:12;98531.63;;;14.75;53.32
64080;BME280;51042;49.696;10.808;2023-03-21T10:10:41;98527.63;;;15.12;53.81
64080;BME280;51042;49.696;10.808;2023-03-21T10:13:13;98526.34;;;15.40;52.04
64080;BME280;51042;49.696;10.808;2023-03-21T10:15:39;98526.53;;;15.28;53.04
64080;BME280;51042;49.696;10.808;2023-03-21T10:18:05;98527.56;;;15.58;53.11
64080;BME280;51042;49.696;10.808;2023-03-21T10:20:32;98516.97;;;15.98;52.11
64080;BME280;51042;49.696;10.808;2023-03-21T10:22:58;98519.25;;;15.67;51.85
64080;BME280;51042;49.696;10.808;2023-03-21T10:25:27;98520.63;;;15.71;51.65
64080;BME280;51042;49.696;10.808;2023-03-21T10:27:53;98502.75;;;15.81;49.26
64080;BME280;51042;49.696;10.808;2023-03-21T10:30:29;98504.00;;;15.71;51.58
64080;BME280;51042;49.696;10.808;2023-03-21T10:32:56;98506.22;;;15.40;50.99
64080;BME280;51042;49.696;10.808;2023-03-21T10:35:23;98502.22;;;15.59;51.65
64080;BME280;51042;49.696;10.808;2023-03-21T10:37:48;98496.56;;;15.86;50.83
64080;BME280;51042;49.696;10.808;2023-03-21T10:40:15;98489.41;;;15.71;51.06
64080;BME280;51042;49.696;10.808;2023-03-21T10:42:41;98496.09;;;15.55;51.44
64080;BME280;51042;49.696;10.808;2023-03-21T10:45:12;98484.22;;;15.97;50.15
64080;BME280;51042;49.696;10.808;2023-03-21T10:47:38;98486.69;;;15.95;48.71
64080;BME280;51042;49.696;10.808;2023-03-21T10:50:04;98491.16;;;15.59;48.99
64080;BME280;51042;49.696;10.808;2023-03-21T10:52:29;98488.78;;;15.76;49.78
64080;BME280;51042;49.696;10.808;2023-03-21T10:57:40;98483.72;;;16.07;48.59
64080;BME280;51042;49.696;10.808;2023-03-21T11:00:06;98486.72;;;16.18;49.29
64080;BME280;51042;49.696;10.808;2023-03-21T11:02:39;98477.72;;;16.32;48.86
64080;BME280;51042;49.696;10.808;2023-03-21T11:05:06;98478.06;;;16.25;49.74
64080;BME280;51042;49.696;10.808;2023-03-21T11:07:32;98473.84;;;16.54;49.13
64080;BME280;51042;49.696;10.808;2023-03-21T11:10:00;98476.41;;;16.43;48.69
64080;BME280;51042;49.696;10.808;2023-03-21T11:12:36;98465.91;;;16.23;50.02
64080;BME280;51042;49.696;10.808;2023-03-21T11:17:46;98468.00;;;16.61;48.43
64080;BME280;51042;49.696;10.808;2023-03-21T11:20:15;98467.03;;;16.64;49.53
64080;BME280;51042;49.696;10.808;2023-03-21T11:22:42;98463.50;;;16.40;49.28
64080;BME280;51042;49.696;10.808;2023-03-21T11:25:09;98456.09;;;16.84;47.35
64080;BME280;51042;49.696;10.808;2023-03-21T11:27:46;98453.72;;;16.92;48.28
64080;BME280;51042;49.696;10.808;2023-03-21T11:30:17;98448.44;;;17.23;48.40
64080;BME280;51042;49.696;10.808;2023-03-21T11:32:43;98456.59;;;17.12;48.61
64080;BME280;51042;49.696;10.808;2023-03-21T11:35:18;98446.16;;;17.36;48.03
64080;BME280;51042;49.696;10.808;2023-03-21T11:37:45;98451.03;;;17.41;49.27
64080;BME280;51042;49.696;10.808;2023-03-21T11:40:25;98444.81;;;16.88;48.92
64080;BME280;51042;49.696;10.808;2023-03-21T11:42:52;98445.09;;;17.04;49.76
64080;BME280;51042;49.696;10.808;2023-03-21T11:47:46;98435.34;;;17.38;48.48
64080;BME280;51042;49.696;10.808;2023-03-21T11:50:22;98440.44;;;16.96;49.15
64080;BME280;51042;49.696;10.808;2023-03-21T11:52:57;98427.97;;;17.35;48.76
64080;BME280;51042;49.696;10.808;2023-03-21T11:57:55;98423.94;;;17.51;46.79
64080;BME280;51042;49.696;10.808;2023-03-21T12:00:24;98415.25;;;17.93;47.55
64080;BME280;51042;49.696;10.808;2023-03-21T12:02:59;98418.22;;;17.89;48.30
64080;BME280;51042;49.696;10.808;2023-03-21T12:05:33;98408.44;;;17.94;48.07
64080;BME280;51042;49.696;10.808;2023-03-21T12:15:47;98411.09;;;18.44;46.03
64080;BME280;51042;49.696;10.808;2023-03-21T12:18:34;98393.38;;;18.21;46.37
64080;BME280;51042;49.696;10.808;2023-03-21T12:23:37;98393.09;;;18.39;45.77
64080;BME280;51042;49.696;10.808;2023-03-21T12:26:50;98398.63;;;18.59;45.23
64080;BME280;51042;49.696;10.808;2023-03-21T12:44:24;98370.69;;;18.02;46.65
64080;BME280;51042;49.696;10.808;2023-03-21T12:46:54;98372.34;;;18.14;47.07
64080;BME280;51042;49.696;10.808;2023-03-21T12:49:23;98364.00;;;18.14;47.88
64080;BME280;51042;49.696;10.808;2023-03-21T12:51:50;98365.00;;;17.91;47.38
64080;BME280;51042;49.696;10.808;2023-03-21T13:01:38;98353.47;;;18.64;46.65
64080;BME280;51042;49.696;10.808;2023-03-21T13:04:48;98354.25;;;17.64;48.36
64080;BME280;51042;49.696;10.808;2023-03-21T13:06:53;98344.97;;;18.07;47.92
64080;BME280;51042;49.696;10.808;2023-03-21T13:09:26;98343.16;;;18.24;48.00
64080;BME280;51042;49.696;10.808;2023-03-21T13:11:53;98334.00;;;18.18;47.21
64080;BME280;51042;49.696;10.808;2023-03-21T13:14:22;98335.25;;;18.17;47.01
64080;BME280;51042;49.696;10.808;2023-03-21T13:16:55;98326.78;;;18.26;47.50
64080;BME280;51042;49.696;10.808;2023-03-21T13:21:59;98327.00;;;18.49;47.30
64080;BME280;51042;49.696;10.808;2023-03-21T13:24:37;98331.69;;;18.37;46.64
64080;BME280;51042;49.696;10.808;2023-03-21T13:27:04;98326.28;;;18.54;46.85
64080;BME280;51042;49.696;10.808;2023-03-21T13:29:39;98331.41;;;18.55;46.85
64080;BME280;51042;49.696;10.808;2023-03-21T13:32:09;98322.09;;;18.90;46.81
64080;BME280;51042;49.696;10.808;2023-03-21T13:34:40;98320.31;;;18.87;46.30
64080;BME280;51042;49.696;10.808;2023-03-21T13:37:05;98317.97;;;18.80;46.72
64080;BME280;51042;49.696;10.808;2023-03-21T13:39:37;98315.91;;;18.74;46.71
64080;BME280;51042;49.696;10.808;2023-03-21T13:42:10;98313.63;;;18.73;45.91
64080;BME280;51042;49.696;10.808;2023-03-21T13:44:43;98313.50;;;18.88;46.45
64080;BME280;51042;49.696;10.808;2023-03-21T13:49:49;98304.00;;;18.48;48.73
64080;BME280;51042;49.696;10.808;2023-03-21T13:52:31;98297.13;;;18.64;48.18
64080;BME280;51042;49.696;10.808;2023-03-21T13:54:56;98297.31;;;18.60;47.63
64080;BME280;51042;49.696;10.808;2023-03-21T13:57:34;98303.19;;;18.42;47.65
64080;BME280;51042;49.696;10.808;2023-03-21T14:00:56;98289.00;;;18.60;47.93
64080;BME280;51042;49.696;10.808;2023-03-21T14:02:54;98294.63;;;18.71;47.71
64080;BME280;51042;49.696;10.808;2023-03-21T14:05:22;98281.81;;;18.54;48.29
64080;BME280;51042;49.696;10.808;2023-03-21T14:07:48;98294.38;;;18.44;48.70
64080;BME280;51042;49.696;10.808;2023-03-21T14:10:27;98284.34;;;18.52;47.52
64080;BME280;51042;49.696;10.808;2023-03-21T14:12:53;98279.66;;;18.38;47.84
64080;BME280;51042;49.696;10.808;2023-03-21T14:15:20;98271.38;;;18.43;48.00
64080;BME280;51042;49.696;10.808;2023-03-21T14:17:53;98279.22;;;18.19;49.21
64080;BME280;51042;49.696;10.808;2023-03-21T14:20:26;98280.03;;;18.25;48.44
64080;BME280;51042;49.696;10.808;2023-03-21T14:22:52;98268.09;;;18.45;48.89
64080;BME280;51042;49.696;10.808;2023-03-21T14:25:19;98268.00;;;18.59;48.28
64080;BME280;51042;49.696;10.808;2023-03-21T14:27:46;98270.78;;;18.33;48.64
64080;BME280;51042;49.696;10.808;2023-03-21T14:30:19;98275.41;;;18.16;48.66
64080;BME280;51042;49.696;10.808;2023-03-21T14:32:45;98263.44;;;18.05;49.30
64080;BME280;51042;49.696;10.808;2023-03-21T14:35:11;98269.69;;;18.25;49.64
64080;BME280;51042;49.696;10.808;2023-03-21T14:37:38;98260.25;;;18.17;49.75
64080;BME280;51042;49.696;10.808;2023-03-21T14:40:05;98261.78;;;18.18;49.50
64080;BME280;51042;49.696;10.808;2023-03-21T14:42:34;98256.06;;;18.02;49.76
64080;BME280;51042;49.696;10.808;2023-03-21T14:45:05;98260.91;;;18.07;49.86
64080;BME280;51042;49.696;10.808;2023-03-21T14:47:34;98255.34;;;17.81;50.51
64080;BME280;51042;49.696;10.808;2023-03-21T14:50:01;98259.28;;;17.74;50.88
64080;BME280;51042;49.696;10.808;2023-03-21T14:52:30;98251.66;;;17.69;50.34
64080;BME280;51042;49.696;10.808;2023-03-21T14:54:56;98247.13;;;17.72;50.87
64080;BME280;51042;49.696;10.808;2023-03-21T14:57:23;98242.84;;;17.71;51.30
64080;BME280;51042;49.696;10.808;2023-03-21T14:59:49;98240.59;;;17.54;50.62
64080;BME280;51042;49.696;10.808;2023-03-21T15:02:21;98242.00;;;17.44;51.95
64080;BME280;51042;49.696;10.808;2023-03-21T15:04:48;98246.91;;;17.35;51.79
64080;BME280;51042;49.696;10.808;2023-03-21T15:09:52;98249.44;;;17.18;53.07
64080;BME280;51042;49.696;10.808;2023-03-21T15:12:17;98249.69;;;17.00;52.69